createdAt,value
2022-11-30T00:01:24.770Z,55.50
2022-11-30T00:03:56.097Z,59.80
2022-11-30T00:06:24.273Z,54.35
2022-11-30T00:09:00.657Z,56.70
2022-11-30T00:11:29.156Z,52.30
2022-11-30T00:13:56.892Z,56.03
2022-11-30T00:16:24.122Z,51.65
2022-11-30T00:18:51.325Z,55.28
2022-11-30T00:21:20.164Z,56.38
2022-11-30T00:23:47.808Z,56.65
2022-11-30T00:26:18.316Z,53.95
2022-11-30T00:28:46.779Z,52.28
2022-11-30T00:31:16.696Z,61.08
2022-11-30T00:33:43.966Z,59.80
2022-11-30T00:36:15.815Z,59.75
2022-11-30T00:38:43.728Z,60.00
2022-11-30T00:41:11.099Z,57.20
2022-11-30T00:43:38.345Z,58.13
2022-11-30T00:46:06.194Z,55.92
2022-11-30T00:48:33.049Z,55.63
2022-11-30T00:50:59.953Z,58.08
2022-11-30T00:53:27.387Z,60.05
2022-11-30T00:55:54.566Z,61.08
2022-11-30T00:58:21.541Z,60.30
2022-11-30T01:00:48.587Z,61.53
2022-11-30T01:03:16.795Z,58.42
2022-11-30T01:05:43.618Z,59.03
2022-11-30T01:08:11.884Z,56.13
2022-11-30T01:10:41.060Z,61.75
2022-11-30T01:13:08.418Z,58.08
2022-11-30T01:15:40.836Z,58.90
2022-11-30T01:18:07.748Z,63.80
2022-11-30T01:20:35.172Z,62.58
2022-11-30T01:23:01.980Z,65.72
2022-11-30T01:25:29.763Z,61.15
2022-11-30T01:27:56.765Z,64.50
2022-11-30T01:30:24.048Z,64.85
2022-11-30T01:32:50.828Z,65.68
2022-11-30T01:35:18.056Z,67.80
2022-11-30T01:37:44.824Z,62.83
2022-11-30T01:40:12.694Z,62.38
2022-11-30T01:42:46.829Z,62.05
2022-11-30T01:45:16.145Z,67.53
2022-11-30T01:47:49.735Z,65.53
2022-11-30T01:50:19.697Z,64.50
2022-11-30T01:52:54.908Z,69.97
2022-11-30T01:55:29.860Z,66.68
2022-11-30T01:58:08.616Z,63.45
2022-11-30T02:00:36.274Z,69.97
2022-11-30T02:05:43.277Z,69.82
2022-11-30T02:08:11.640Z,69.07
2022-11-30T02:10:42.575Z,68.65
2022-11-30T02:13:18.537Z,74.22
2022-11-30T02:16:05.211Z,76.90
2022-11-30T02:19:12.276Z,82.80
2022-11-30T02:21:52.559Z,79.78
2022-11-30T02:24:32.080Z,77.53
2022-11-30T02:27:19.130Z,73.22
2022-11-30T02:30:15.347Z,80.97
2022-11-30T02:33:02.792Z,73.45
2022-11-30T02:35:36.147Z,73.05
2022-11-30T02:38:05.715Z,83.97
2022-11-30T02:40:33.187Z,77.50
2022-11-30T02:43:03.710Z,85.03
2022-11-30T02:45:47.026Z,86.20
2022-11-30T02:48:18.284Z,71.18
2022-11-30T02:50:51.050Z,79.68
2022-11-30T02:53:18.070Z,85.20
2022-11-30T02:55:44.865Z,80.65
2022-11-30T02:58:13.276Z,83.38
2022-11-30T03:00:42.846Z,71.60
2022-11-30T03:03:11.052Z,78.97
2022-11-30T03:05:38.311Z,80.93
2022-11-30T03:08:05.744Z,79.63
2022-11-30T03:10:32.537Z,86.45
2022-11-30T03:13:00.527Z,81.28
2022-11-30T03:15:28.377Z,80.25
2022-11-30T03:17:55.992Z,69.32
2022-11-30T03:20:22.894Z,73.97
2022-11-30T03:22:49.746Z,65.65
2022-11-30T03:25:16.545Z,69.03
2022-11-30T03:27:43.334Z,66.80
2022-11-30T03:30:11.168Z,65.60
2022-11-30T03:32:38.477Z,70.70
2022-11-30T03:35:05.685Z,70.90
2022-11-30T03:37:32.978Z,71.97
2022-11-30T03:39:59.777Z,72.72
2022-11-30T03:42:27.302Z,69.30
2022-11-30T03:44:54.073Z,68.95
2022-11-30T03:47:21.322Z,73.78
2022-11-30T03:49:48.198Z,85.03
2022-11-30T03:52:15.033Z,85.72
2022-11-30T03:54:43.157Z,71.40
2022-11-30T03:57:10.105Z,83.78
2022-11-30T03:59:36.910Z,90.03
2022-11-30T04:02:04.349Z,87.63
2022-11-30T04:04:31.691Z,86.10
2022-11-30T04:06:58.520Z,82.75
2022-11-30T04:09:25.698Z,88.70
2022-11-30T04:11:54.894Z,81.97
2022-11-30T04:14:22.125Z,81.88
2022-11-30T04:16:48.874Z,89.15
2022-11-30T04:19:15.708Z,86.03
2022-11-30T04:21:42.933Z,75.53
2022-11-30T04:24:09.720Z,80.85
2022-11-30T04:26:37.699Z,77.82
2022-11-30T04:29:05.981Z,70.38
2022-11-30T04:31:32.971Z,67.35
2022-11-30T04:34:00.532Z,67.88
2022-11-30T04:36:27.290Z,66.32
2022-11-30T04:38:54.625Z,74.82
2022-11-30T04:41:21.410Z,73.30
2022-11-30T04:43:48.774Z,63.17
2022-11-30T04:46:15.616Z,71.22
2022-11-30T04:48:42.521Z,70.38
2022-11-30T04:51:09.505Z,68.13
2022-11-30T04:53:37.672Z,68.60
2022-11-30T04:56:10.189Z,69.05
2022-11-30T04:58:39.174Z,66.00
2022-11-30T05:01:06.944Z,66.75
2022-11-30T05:03:34.264Z,75.07
2022-11-30T05:06:01.393Z,70.35
2022-11-30T05:08:28.516Z,70.70
2022-11-30T05:10:55.771Z,65.63
2022-11-30T05:13:23.790Z,72.95
2022-11-30T05:15:51.324Z,67.35
2022-11-30T05:18:18.158Z,60.30
2022-11-30T05:20:54.379Z,61.65
2022-11-30T05:23:21.663Z,61.55
2022-11-30T05:25:50.735Z,66.25
2022-11-30T05:28:17.584Z,68.03
2022-11-30T05:30:44.520Z,58.63
2022-11-30T05:33:11.781Z,62.47
2022-11-30T05:35:39.068Z,65.90
2022-11-30T05:38:06.625Z,60.03
2022-11-30T05:40:34.135Z,60.08
2022-11-30T05:43:03.198Z,62.47
2022-11-30T05:45:31.335Z,69.32
2022-11-30T05:47:58.444Z,55.72
2022-11-30T05:50:25.801Z,61.22
2022-11-30T05:52:56.545Z,66.85
2022-11-30T05:55:27.116Z,60.50
2022-11-30T05:57:54.425Z,68.05
2022-11-30T06:00:21.919Z,67.03
2022-11-30T06:02:48.877Z,66.28
2022-11-30T06:05:16.629Z,66.30
2022-11-30T06:07:45.907Z,64.45
2022-11-30T06:10:14.174Z,77.45
2022-11-30T06:12:41.475Z,72.13
2022-11-30T06:15:11.618Z,71.80
2022-11-30T06:17:40.009Z,71.40
2022-11-30T06:20:08.018Z,65.20
2022-11-30T06:22:35.518Z,66.18
2022-11-30T06:25:03.790Z,72.60
2022-11-30T06:27:32.464Z,67.53
2022-11-30T06:29:59.621Z,79.13
2022-11-30T06:32:26.430Z,65.13
2022-11-30T06:34:54.765Z,73.85
2022-11-30T06:37:22.835Z,62.92
2022-11-30T06:40:05.927Z,70.07
2022-11-30T06:42:35.167Z,66.20
2022-11-30T06:45:02.609Z,69.60
2022-11-30T06:47:29.546Z,67.38
2022-11-30T06:49:59.143Z,70.75
2022-11-30T06:52:26.850Z,58.55
2022-11-30T06:54:54.047Z,61.60
2022-11-30T06:57:21.335Z,57.33
2022-11-30T06:59:48.119Z,57.33
2022-11-30T07:02:18.483Z,57.17
2022-11-30T07:04:46.183Z,51.80
2022-11-30T07:07:13.277Z,53.92
2022-11-30T07:09:40.622Z,53.47
2022-11-30T07:12:09.155Z,47.42
2022-11-30T07:14:36.053Z,51.10
2022-11-30T07:17:04.918Z,52.80
2022-11-30T07:19:36.560Z,51.42
2022-11-30T07:22:05.301Z,51.42
2022-11-30T07:24:51.091Z,58.50
2022-11-30T07:27:17.859Z,54.67
2022-11-30T07:29:44.759Z,50.33
2022-11-30T07:32:11.716Z,54.55
2022-11-30T07:34:38.945Z,53.67
2022-11-30T07:37:05.844Z,53.50
2022-11-30T07:39:33.189Z,54.42
2022-11-30T07:42:00.100Z,52.03
2022-11-30T07:44:28.096Z,54.05
2022-11-30T07:46:54.928Z,59.13
2022-11-30T07:49:22.227Z,72.65
2022-11-30T07:51:49.132Z,144.85
2022-11-30T07:54:15.962Z,66.18
2022-11-30T07:56:43.977Z,101.75
2022-11-30T07:59:10.960Z,113.18
2022-11-30T08:01:38.438Z,72.18
2022-11-30T08:04:05.561Z,120.32
2022-11-30T08:06:32.501Z,77.13
2022-11-30T08:09:02.226Z,81.20
2022-11-30T08:11:33.941Z,56.05
2022-11-30T08:14:02.395Z,68.32
2022-11-30T08:16:32.027Z,50.75
2022-11-30T08:19:00.724Z,50.78
2022-11-30T08:21:30.735Z,50.90
2022-11-30T08:23:58.078Z,46.80
2022-11-30T08:26:32.159Z,53.50
2022-11-30T08:29:00.450Z,60.70
2022-11-30T08:31:29.931Z,48.10
2022-11-30T08:33:59.414Z,45.42
2022-11-30T08:36:28.288Z,40.60
2022-11-30T08:38:58.334Z,47.05
2022-11-30T08:41:26.166Z,43.42
2022-11-30T08:43:53.576Z,45.22
2022-11-30T08:49:21.386Z,56.03
2022-11-30T08:54:39.133Z,52.85
2022-11-30T08:57:06.610Z,47.08
2022-11-30T08:59:33.852Z,51.33
2022-11-30T09:02:01.167Z,48.53
2022-11-30T09:04:27.989Z,43.45
2022-11-30T09:06:59.028Z,44.50
2022-11-30T09:09:27.936Z,45.15
2022-11-30T09:14:23.065Z,46.58
2022-11-30T09:16:50.345Z,47.45
2022-11-30T09:19:17.140Z,48.65
2022-11-30T09:21:50.930Z,48.38
2022-11-30T09:24:19.211Z,47.60
2022-11-30T09:26:46.386Z,38.28
2022-11-30T09:29:14.720Z,45.10
2022-11-30T09:31:41.574Z,42.50
2022-11-30T09:34:12.145Z,42.30
2022-11-30T09:36:39.463Z,44.70
2022-11-30T09:39:06.830Z,43.95
2022-11-30T09:41:45.692Z,47.60
2022-11-30T09:44:18.860Z,40.35
2022-11-30T09:47:00.182Z,42.83
2022-11-30T09:49:39.766Z,46.55
2022-11-30T09:52:14.406Z,41.90
2022-11-30T09:54:44.125Z,43.30
2022-11-30T09:57:33.832Z,45.53
2022-11-30T10:00:04.732Z,43.80
2022-11-30T10:02:40.471Z,40.40
2022-11-30T10:05:19.854Z,38.22
2022-11-30T10:08:18.152Z,40.78
2022-11-30T10:11:17.354Z,41.17
2022-11-30T10:14:23.969Z,44.67
2022-11-30T10:16:57.944Z,44.65
2022-11-30T10:20:04.084Z,45.38
2022-11-30T10:22:46.283Z,43.25
2022-11-30T10:25:33.844Z,42.08
2022-11-30T10:28:46.468Z,39.78
2022-11-30T10:31:15.710Z,45.10
2022-11-30T10:33:51.399Z,43.00
2022-11-30T10:36:36.523Z,39.30
2022-11-30T10:39:14.242Z,40.60
2022-11-30T10:41:51.258Z,38.50
2022-11-30T10:44:40.567Z,41.00
2022-11-30T10:47:26.646Z,39.22
2022-11-30T10:49:53.516Z,38.65
2022-11-30T10:52:50.186Z,37.85
2022-11-30T10:55:44.519Z,37.50
2022-11-30T10:58:20.809Z,37.65
2022-11-30T11:00:59.543Z,38.60
2022-11-30T11:03:28.042Z,42.38
2022-11-30T11:06:17.101Z,40.75
2022-11-30T11:08:45.683Z,41.58
2022-11-30T11:11:34.982Z,40.72
2022-11-30T11:14:23.222Z,39.17
2022-11-30T11:17:02.909Z,40.17
2022-11-30T11:19:34.485Z,37.00
2022-11-30T11:22:08.531Z,39.95
2022-11-30T11:24:36.633Z,42.20
2022-11-30T11:27:03.753Z,38.65
2022-11-30T11:29:34.996Z,40.05
2022-11-30T11:32:12.181Z,48.88
2022-11-30T11:34:39.091Z,40.15
2022-11-30T11:37:15.489Z,41.55
2022-11-30T11:39:56.951Z,39.78
2022-11-30T11:42:40.964Z,37.97
2022-11-30T11:45:30.528Z,39.90
2022-11-30T11:47:59.743Z,42.55
2022-11-30T11:51:06.076Z,40.40
2022-11-30T11:53:39.580Z,37.67
2022-11-30T11:56:19.589Z,39.00
2022-11-30T11:59:14.195Z,38.85
2022-11-30T12:02:05.720Z,41.08
2022-11-30T12:04:47.196Z,39.55
2022-11-30T12:07:35.416Z,43.17
2022-11-30T12:10:49.995Z,40.58
2022-11-30T12:13:14.175Z,45.08
2022-11-30T12:15:56.448Z,44.03
2022-11-30T12:18:51.529Z,36.50
2022-11-30T12:21:26.450Z,32.25
2022-11-30T12:24:16.409Z,35.40
2022-11-30T12:26:51.018Z,38.20
2022-11-30T12:29:31.859Z,33.80
2022-11-30T12:32:25.958Z,37.10
2022-11-30T12:34:57.025Z,34.13
2022-11-30T12:37:35.836Z,34.88
2022-11-30T12:40:45.748Z,32.05
2022-11-30T12:43:43.531Z,37.30
2022-11-30T12:46:15.308Z,33.30
2022-11-30T12:49:13.084Z,32.53
2022-11-30T12:52:37.712Z,34.20
2022-11-30T12:55:35.077Z,33.58
2022-11-30T12:58:27.707Z,34.65
2022-11-30T13:01:05.191Z,28.75
2022-11-30T13:03:50.366Z,34.10
2022-11-30T13:06:59.986Z,32.38
2022-11-30T13:09:52.361Z,30.63
2022-11-30T13:12:37.415Z,36.60
2022-11-30T13:15:19.004Z,31.45
2022-11-30T13:17:46.937Z,30.15
2022-11-30T13:20:42.581Z,30.35
2022-11-30T13:23:21.338Z,35.78
2022-11-30T13:26:13.335Z,31.60
2022-11-30T13:28:50.309Z,31.02
2022-11-30T13:31:47.495Z,33.15
2022-11-30T13:34:28.859Z,29.15
2022-11-30T13:37:24.394Z,29.40
2022-11-30T13:39:57.604Z,31.70
2022-11-30T13:42:50.240Z,29.98
2022-11-30T13:45:30.636Z,30.52
2022-11-30T13:47:58.738Z,29.67
2022-11-30T13:50:33.934Z,29.15
2022-11-30T13:53:00.779Z,32.25
2022-11-30T13:55:46.268Z,41.13
2022-11-30T13:58:15.767Z,33.35
2022-11-30T14:01:02.983Z,31.42
2022-11-30T14:03:34.297Z,28.65
2022-11-30T14:06:05.765Z,29.33
2022-11-30T14:08:38.054Z,29.10
2022-11-30T14:11:35.946Z,27.73
2022-11-30T14:14:57.165Z,27.25
2022-11-30T14:17:27.096Z,29.90
2022-11-30T14:20:16.060Z,30.52
2022-11-30T14:22:44.266Z,28.70
2022-11-30T14:25:21.384Z,30.42
2022-11-30T14:27:50.932Z,28.65
2022-11-30T14:30:21.369Z,28.25
2022-11-30T14:33:04.982Z,32.40
2022-11-30T14:35:35.544Z,31.48
2022-11-30T14:38:14.687Z,31.50
2022-11-30T14:40:52.498Z,32.40
2022-11-30T14:43:19.535Z,34.58
2022-11-30T14:46:09.197Z,31.00
2022-11-30T14:48:39.664Z,30.00
2022-11-30T14:51:07.274Z,30.48
2022-11-30T14:53:53.547Z,32.13
2022-11-30T14:56:44.414Z,32.70
2022-11-30T14:59:26.276Z,46.88
2022-11-30T15:02:03.080Z,29.60
2022-11-30T15:04:31.016Z,30.58
2022-11-30T15:06:59.827Z,34.78
2022-11-30T15:09:31.840Z,32.08
2022-11-30T15:11:59.362Z,33.10
2022-11-30T15:14:26.620Z,30.35
2022-11-30T15:16:57.296Z,29.90
2022-11-30T15:19:28.517Z,31.05
2022-11-30T15:21:57.846Z,31.30
2022-11-30T15:24:25.855Z,31.02
2022-11-30T15:27:06.983Z,30.30
2022-11-30T15:29:45.143Z,33.17
2022-11-30T15:32:24.183Z,31.20
2022-11-30T15:34:56.994Z,38.17
2022-11-30T15:37:32.543Z,30.58
2022-11-30T15:40:03.907Z,32.72
2022-11-30T15:42:40.111Z,33.13
2022-11-30T15:45:25.553Z,32.75
2022-11-30T15:47:54.484Z,32.08
2022-11-30T15:50:28.646Z,32.35
2022-11-30T15:53:04.441Z,30.42
2022-11-30T15:55:46.324Z,31.98
2022-11-30T15:58:46.670Z,35.08
2022-11-30T16:01:24.635Z,28.52
2022-11-30T16:04:04.745Z,33.40
2022-11-30T16:06:46.191Z,29.90
2022-11-30T16:09:34.223Z,28.80
2022-11-30T16:12:02.589Z,29.85
2022-11-30T16:15:15.746Z,32.60
2022-11-30T16:17:48.971Z,32.13
2022-11-30T16:23:28.877Z,32.63
2022-11-30T16:25:56.249Z,31.65
2022-11-30T16:28:23.444Z,31.90
2022-11-30T16:30:50.951Z,30.80
2022-11-30T16:33:23.460Z,32.47
2022-11-30T16:36:03.337Z,32.30
2022-11-30T16:38:31.592Z,31.90
2022-11-30T16:41:12.671Z,29.33
2022-11-30T16:43:41.098Z,31.35
2022-11-30T16:46:13.753Z,29.08
2022-11-30T16:48:41.818Z,31.15
2022-11-30T16:51:28.818Z,31.17
2022-11-30T16:53:56.295Z,30.55
2022-11-30T16:56:24.303Z,34.83
2022-11-30T16:58:53.762Z,28.85
2022-11-30T17:01:36.015Z,32.78
2022-11-30T17:04:23.390Z,31.08
2022-11-30T17:06:55.867Z,27.75
2022-11-30T17:09:28.716Z,30.55
2022-11-30T17:11:55.772Z,31.45
2022-11-30T17:14:23.690Z,31.02
2022-11-30T17:16:50.832Z,29.20
2022-11-30T17:19:18.214Z,29.08
2022-11-30T17:21:46.662Z,31.90
2022-11-30T17:24:14.091Z,34.55
2022-11-30T17:26:42.806Z,32.35
2022-11-30T17:29:10.097Z,43.03
2022-11-30T17:31:37.230Z,35.20
2022-11-30T17:34:05.751Z,34.40
2022-11-30T17:36:32.876Z,31.50
2022-11-30T17:38:59.729Z,35.90
2022-11-30T17:41:28.162Z,34.03
2022-11-30T17:43:55.372Z,34.75
2022-11-30T17:46:23.100Z,31.23
2022-11-30T17:48:50.509Z,30.48
2022-11-30T17:51:24.723Z,31.48
2022-11-30T17:53:55.787Z,29.48
2022-11-30T17:59:05.493Z,32.05
2022-11-30T18:01:32.625Z,30.98
2022-11-30T18:03:59.870Z,31.65
2022-11-30T18:06:26.712Z,31.75
2022-11-30T18:08:54.679Z,27.95
2022-11-30T18:11:24.546Z,33.67
2022-11-30T18:13:54.410Z,29.83
2022-11-30T18:16:23.943Z,28.63
2022-11-30T18:18:54.297Z,31.17
2022-11-30T18:21:23.640Z,29.90
2022-11-30T18:23:53.836Z,30.85
2022-11-30T18:26:24.815Z,30.25
2022-11-30T18:28:58.262Z,29.75
2022-11-30T18:31:26.563Z,26.85
2022-11-30T18:34:03.406Z,31.95
2022-11-30T18:36:31.358Z,30.83
2022-11-30T18:38:58.266Z,31.58
2022-11-30T18:41:26.893Z,34.10
2022-11-30T18:43:57.266Z,31.80
2022-11-30T18:46:25.189Z,30.15
2022-11-30T18:49:00.453Z,31.25
2022-11-30T18:51:31.974Z,27.17
2022-11-30T18:54:07.065Z,29.55
2022-11-30T18:56:41.272Z,29.52
2022-11-30T18:59:12.861Z,28.52
2022-11-30T19:01:40.100Z,28.92
2022-11-30T19:04:10.504Z,28.17
2022-11-30T19:06:44.517Z,28.08
2022-11-30T19:09:15.399Z,28.70
2022-11-30T19:11:49.332Z,27.48
2022-11-30T19:14:19.208Z,28.08
2022-11-30T19:16:48.178Z,29.10
2022-11-30T19:19:18.755Z,31.33
2022-11-30T19:21:48.151Z,30.20
2022-11-30T19:24:18.099Z,30.00
2022-11-30T19:26:47.577Z,30.25
2022-11-30T19:29:15.786Z,28.00
2022-11-30T19:32:05.092Z,30.15
2022-11-30T19:34:37.645Z,31.80
2022-11-30T19:37:05.122Z,29.58
2022-11-30T19:42:16.355Z,29.65
2022-11-30T19:44:46.538Z,31.73
2022-11-30T19:47:23.594Z,31.15
2022-11-30T19:49:53.747Z,31.17
2022-11-30T19:52:25.454Z,30.73
2022-11-30T19:54:55.686Z,33.47
2022-11-30T19:57:26.462Z,29.25
2022-11-30T20:00:01.896Z,32.63
2022-11-30T20:05:20.358Z,29.95
2022-11-30T20:07:51.387Z,31.13
2022-11-30T20:10:19.605Z,29.65
2022-11-30T20:12:50.855Z,27.05
2022-11-30T20:15:22.622Z,29.83
2022-11-30T20:17:51.002Z,30.38
2022-11-30T20:20:27.245Z,31.85
2022-11-30T20:23:01.096Z,28.42
2022-11-30T20:25:31.940Z,29.98
2022-11-30T20:28:12.293Z,29.70
2022-11-30T20:33:51.169Z,28.70
2022-11-30T20:36:28.556Z,29.52
2022-11-30T20:39:00.509Z,25.17
2022-11-30T20:41:34.615Z,32.58
2022-11-30T20:44:36.828Z,33.17
2022-11-30T20:47:06.797Z,27.13
2022-11-30T20:49:33.864Z,30.95
2022-11-30T20:52:01.169Z,31.75
2022-11-30T20:54:32.330Z,31.10
2022-11-30T20:57:01.418Z,31.15
2022-11-30T20:59:39.311Z,28.88
2022-11-30T21:02:15.152Z,29.45
2022-11-30T21:04:44.504Z,29.48
2022-11-30T21:07:20.361Z,28.50
2022-11-30T21:12:34.741Z,27.73
2022-11-30T21:15:02.327Z,30.98
2022-11-30T21:17:29.781Z,32.10
2022-11-30T21:19:58.980Z,29.33
2022-11-30T21:22:37.587Z,29.55
2022-11-30T21:25:45.121Z,29.50
2022-11-30T21:28:13.621Z,30.13
2022-11-30T21:30:45.442Z,28.55
2022-11-30T21:33:12.269Z,31.85
2022-11-30T21:35:40.539Z,31.27
2022-11-30T21:38:07.941Z,28.67
2022-11-30T21:40:34.706Z,31.02
2022-11-30T21:43:02.002Z,29.45
2022-11-30T21:45:29.061Z,29.23
2022-11-30T21:47:56.290Z,28.35
2022-11-30T21:50:27.034Z,30.83
2022-11-30T21:52:55.509Z,32.75
2022-11-30T21:55:22.361Z,29.98
2022-11-30T21:57:55.214Z,33.70
2022-11-30T22:00:22.497Z,29.42
2022-11-30T22:02:49.385Z,32.03
2022-11-30T22:05:16.381Z,33.72
2022-11-30T22:07:46.385Z,27.85
2022-11-30T22:10:13.906Z,32.33
2022-11-30T22:12:41.479Z,30.92
2022-11-30T22:15:09.502Z,30.67
2022-11-30T22:17:37.708Z,29.65
2022-11-30T22:20:07.726Z,33.63
2022-11-30T22:22:35.345Z,27.92
2022-11-30T22:25:08.645Z,30.77
2022-11-30T22:27:36.871Z,30.35
2022-11-30T22:30:04.470Z,32.13
2022-11-30T22:32:33.565Z,30.70
2022-11-30T22:35:00.580Z,31.33
2022-11-30T22:37:27.468Z,32.33
2022-11-30T22:39:54.787Z,27.98
2022-11-30T22:42:21.711Z,30.90
2022-11-30T22:44:48.608Z,31.35
2022-11-30T22:47:15.476Z,29.35
2022-11-30T22:49:42.297Z,26.13
2022-11-30T22:52:12.073Z,30.67
2022-11-30T22:54:38.958Z,30.70
2022-11-30T22:57:06.129Z,31.65
2022-11-30T22:59:32.920Z,27.75
2022-11-30T23:02:00.726Z,32.72
2022-11-30T23:04:27.546Z,34.40
2022-11-30T23:06:56.170Z,27.45
2022-11-30T23:09:23.305Z,33.60
2022-11-30T23:11:51.904Z,29.38
2022-11-30T23:14:21.448Z,32.05
2022-11-30T23:16:49.573Z,35.28
2022-11-30T23:19:16.572Z,32.38
2022-11-30T23:21:49.228Z,31.35
2022-11-30T23:24:20.703Z,30.45
2022-11-30T23:26:49.012Z,28.35
2022-11-30T23:29:26.734Z,31.88
2022-11-30T23:31:53.998Z,32.85
2022-11-30T23:34:22.292Z,29.15
2022-11-30T23:36:51.768Z,31.70
2022-11-30T23:39:19.803Z,33.30
2022-11-30T23:41:47.496Z,26.45
2022-11-30T23:44:16.192Z,30.65
2022-11-30T23:46:43.472Z,28.95
2022-11-30T23:49:13.472Z,30.73
2022-11-30T23:51:40.298Z,28.17
2022-11-30T23:54:07.714Z,28.48
2022-11-30T23:56:34.843Z,29.45
2022-11-30T23:59:01.697Z,29.50
